Allentown, New Jersey
Current Conditions -  °F | °C
As of 9:58 AM on Thursday 25 Dec 2014 (Local Time) from KWRI Reporting Station
Scattered Clouds Scattered Clouds  
Wind Chill:   Ceiling: Unl
Heat Index:   Visibility: 10mi
Dew Point:   Wind: 15mph
Humidity: 66%   Direction: 290°WNW
Pressure: 29.79"   Gusts: 23mph
Location:  40.18°N, 74.58°W
Report Text: KWRI 251458Z AUTO 29013G20KT 10SM FEW190 SCT210 09/03 A2979 RMK AO2 PRESRR SLP091 60000 T00930033 52045
Loading
Personal Weather Stations






























Interactive Weather Map New forecast layout! Learn more

10-Day Weather Forecast

Advertisements
Track Severe Weather on mobile